Time;durP1;ratioP1;P1;durP2;ratioP2;P2;SDS_P1;SDS_P2;PMS_P1;PMS_P2;Temp;Humidity;BMP_temperature;BMP_pressure;BME280_temperature;BME280_humidity;BME280_pressure;Samples;Min_cycle;Max_cycle;Signal;HPM_P1;HPM_P2
2022/01/18 00:01:50;;;;;;;0.35;0.35;;;6.50;99.90;;;;;;5098768;27;20049;-83
2022/01/18 00:04:16;;;;;;;4.88;1.35;;;6.50;99.90;;;;;;5098845;27;20035;-83
2022/01/18 00:06:45;;;;;;;2.30;2.10;;;6.40;99.90;;;;;;5098386;27;20557;-83
2022/01/18 00:09:11;;;;;;;2.15;1.30;;;6.40;99.90;;;;;;5098483;28;20035;-83
2022/01/18 00:11:45;;;;;;;1.55;0.52;;;6.40;99.90;;;;;;5098959;28;20497;-83
2022/01/18 00:14:22;;;;;;;3.25;1.65;;;6.40;99.90;;;;;;5099242;28;20031;-83
2022/01/18 00:19:39;;;;;;;5.93;2.08;;;6.30;99.90;;;;;;5115625;28;20097;-83
2022/01/18 00:22:11;;;;;;;5.03;2.03;;;6.20;99.90;;;;;;5098610;28;20046;-83
2022/01/18 00:24:39;;;;;;;2.00;0.80;;;6.20;99.90;;;;;;5098583;28;20074;-83
2022/01/18 00:27:09;;;;;;;9.00;4.47;;;6.10;99.90;;;;;;5098262;28;20483;-83
2022/01/18 00:29:39;;;;;;;2.40;0.60;;;6.00;99.90;;;;;;5098509;28;20074;-83
2022/01/18 00:32:27;;;;;;;1.30;0.75;;;6.00;99.90;;;;;;5098637;28;20046;-83
2022/01/18 00:34:56;;;;;;;1.65;0.63;;;5.80;99.90;;;;;;5098583;28;20475;-83
2022/01/18 00:37:35;;;;;;;11.38;2.47;;;5.80;99.90;;;;;;5098129;28;20038;-83
2022/01/18 00:40:01;;;;;;;8.05;1.45;;;5.70;99.90;;;;;;5098246;28;20058;-83
2022/01/18 00:42:26;;;;;;;4.38;0.98;;;5.60;99.90;;;;;;5098356;28;20415;-83
2022/01/18 00:44:52;;;;;;;20.38;2.22;;;5.60;99.90;;;;;;5098431;28;20083;-83
2022/01/18 00:47:18;;;;;;;7.40;2.33;;;5.50;99.90;;;;;;5097990;28;20116;-83
2022/01/18 00:49:46;;;;;;;26.40;4.68;;;5.60;99.90;;;;;;5115353;28;20046;-83
2022/01/18 00:52:12;;;;;;;10.43;1.52;;;5.50;99.90;;;;;;5098403;28;20042;-83
2022/01/18 00:54:41;;;;;;;15.73;4.60;;;5.40;99.90;;;;;;5098359;28;20114;-82
2022/01/18 00:57:07;;;;;;;31.58;2.55;;;5.40;99.90;;;;;;5097748;28;20035;-82
2022/01/18 00:59:33;;;;;;;24.83;3.92;;;5.30;99.90;;;;;;5098192;28;20031;-83
2022/01/18 01:01:59;;;;;;;12.98;2.88;;;5.30;99.90;;;;;;5098170;28;20035;-83
2022/01/18 01:04:28;;;;;;;4.57;0.73;;;5.30;99.90;;;;;;5098154;28;20430;-83
2022/01/18 01:06:53;;;;;;;16.00;2.45;;;5.30;99.90;;;;;;5097725;28;20082;-82
2022/01/18 01:09:19;;;;;;;1.17;0.82;;;5.30;99.90;;;;;;5097988;28;20075;-83
2022/01/18 01:11:45;;;;;;;0.30;0.30;;;5.20;99.90;;;;;;5098126;28;20027;-83
2022/01/18 01:14:18;;;;;;;11.15;2.05;;;5.30;99.90;;;;;;5098109;28;20503;-83
2022/01/18 01:16:59;;;;;;;8.40;1.92;;;5.30;99.90;;;;;;5098228;27;20041;-83
2022/01/18 01:45:53;;;;;;;14.77;1.38;;;5.30;99.90;;;;;;5118522;27;20046;-83
2022/01/18 01:48:27;;;;;;;12.18;2.47;;;5.30;99.90;;;;;;5101070;27;20045;-82
2022/01/18 01:51:03;;;;;;;17.98;4.15;;;5.30;99.90;;;;;;5101352;27;20035;-82
2022/01/18 01:53:30;;;;;;;19.88;3.13;;;5.30;99.90;;;;;;5118239;27;20407;-83
2022/01/18 01:55:56;;;;;;;31.58;4.53;;;5.30;99.90;;;;;;5101026;27;20088;-83
2022/01/18 01:58:24;;;;;;;24.92;1.90;;;5.30;99.90;;;;;;5100646;27;20039;-83
2022/01/18 02:01:01;;;;;;;13.63;2.50;;;5.30;99.90;;;;;;5100885;27;20047;-83
2022/01/18 02:03:27;;;;;;;19.00;1.80;;;5.30;99.90;;;;;;5101327;27;20492;-83
2022/01/18 02:05:53;;;;;;;25.05;3.78;;;5.30;99.90;;;;;;5100823;27;20121;-83
2022/01/18 02:08:20;;;;;;;10.27;3.15;;;5.30;99.90;;;;;;5117402;27;20043;-83
2022/01/18 02:10:45;;;;;;;8.23;1.70;;;5.30;99.90;;;;;;5117221;27;20088;-83
2022/01/18 02:13:12;;;;;;;17.75;2.85;;;5.30;99.90;;;;;;5100601;27;20468;-83
2022/01/18 02:15:44;;;;;;;5.50;2.58;;;5.40;99.90;;;;;;5117709;27;20038;-83
2022/01/18 02:23:38;;;;;;;0.98;0.93;;;5.40;99.90;;;;;;5117542;27;20104;-83
2022/01/18 02:26:04;;;;;;;7.88;1.25;;;5.40;99.90;;;;;;5100057;27;20043;-84
2022/01/18 02:28:30;;;;;;;2.13;1.60;;;5.40;99.90;;;;;;5100547;27;20400;-83
2022/01/18 02:30:56;;;;;;;8.25;0.95;;;5.40;99.90;;;;;;5100193;27;20050;-83
2022/01/18 02:33:22;;;;;;;0.30;0.30;;;5.40;99.90;;;;;;5100305;27;20027;-83
2022/01/18 02:35:49;;;;;;;1.95;1.38;;;5.50;99.90;;;;;;5117215;27;20046;-83
2022/01/18 02:38:15;;;;;;;0.88;0.88;;;5.50;99.90;;;;;;5099847;27;20043;-83
2022/01/18 02:40:41;;;;;;;0.43;0.43;;;5.60;99.90;;;;;;5100390;27;20054;-83
2022/01/18 02:45:55;;;;;;;1.15;0.85;;;5.50;99.90;;;;;;5113759;28;20051;-83
2022/01/18 02:48:22;;;;;;;26.85;2.10;;;5.50;99.90;;;;;;5079221;28;20039;-83
2022/01/18 02:50:48;;;;;;;0.70;0.50;;;5.50;99.90;;;;;;5079573;28;20084;-83
2022/01/18 02:53:16;;;;;;;13.45;2.65;;;5.50;99.90;;;;;;5096618;28;20412;-83
2022/01/18 02:55:48;;;;;;;4.00;1.08;;;5.50;99.90;;;;;;5079550;28;20408;-83
2022/01/18 02:58:21;;;;;;;5.05;1.30;;;5.50;99.90;;;;;;5096115;28;20035;-83
2022/01/18 03:03:37;;;;;;;5.47;2.25;;;5.50;99.90;;;;;;5097637;27;20058;-83
2022/01/18 03:06:04;;;;;;;27.80;4.45;;;5.60;99.90;;;;;;5116764;27;20046;-83
2022/01/18 03:08:30;;;;;;;3.70;1.35;;;5.60;99.90;;;;;;5099684;27;20155;-83
2022/01/18 03:10:57;;;;;;;1.40;0.70;;;5.70;99.90;;;;;;5116349;27;20063;-83
2022/01/18 03:13:23;;;;;;;1.17;1.02;;;5.60;99.90;;;;;;5099497;27;20558;-83
2022/01/18 03:15:48;;;;;;;12.18;1.23;;;5.60;99.90;;;;;;5099500;27;20031;-83
2022/01/18 03:18:14;;;;;;;5.40;1.67;;;5.60;99.90;;;;;;5098986;27;20539;-83
2022/01/18 03:20:40;;;;;;;19.67;2.55;;;5.60;99.90;;;;;;5099479;27;20035;-83
2022/01/18 03:23:11;;;;;;;20.15;2.13;;;5.50;99.90;;;;;;5116293;27;20049;-83
2022/01/18 03:28:05;;;;;;;15.57;2.85;;;5.50;99.90;;;;;;5116104;27;20035;-83
2022/01/18 03:30:42;;;;;;;52.05;4.65;;;5.60;99.90;;;;;;5099032;27;20039;-82
2022/01/18 03:33:17;;;;;;;99.18;4.35;;;5.50;99.90;;;;;;5099165;27;20039;-83
2022/01/18 03:35:43;;;;;;;18.27;2.38;;;5.50;99.90;;;;;;5099356;27;20039;-83
2022/01/18 03:38:11;;;;;;;14.63;1.90;;;5.50;99.90;;;;;;5098748;27;20095;-83
2022/01/18 03:40:37;;;;;;;22.05;2.67;;;5.50;99.90;;;;;;5098595;27;20035;-82
2022/01/18 03:43:06;;;;;;;27.83;2.15;;;5.40;99.90;;;;;;5099246;27;20038;-83
2022/01/18 03:45:40;;;;;;;10.50;2.03;;;5.40;99.90;;;;;;5099145;27;20050;-84
2022/01/18 03:48:10;;;;;;;28.02;3.10;;;5.40;99.90;;;;;;5099049;27;20050;-83
2022/01/18 03:50:35;;;;;;;29.98;2.58;;;5.40;99.90;;;;;;5098956;28;20046;-83
2022/01/18 03:53:01;;;;;;;22.42;4.18;;;5.40;99.90;;;;;;5099240;27;20034;-82
2022/01/18 03:55:27;;;;;;;71.28;4.35;;;5.30;99.90;;;;;;5098798;27;20050;-83
2022/01/18 03:57:53;;;;;;;1.45;0.85;;;5.30;99.90;;;;;;5098511;27;20031;-83
2022/01/18 04:00:23;;;;;;;33.70;2.97;;;5.40;99.90;;;;;;5098826;27;20069;-83
2022/01/18 04:02:50;;;;;;;5.35;1.75;;;5.30;99.90;;;;;;5098820;27;20449;-83
2022/01/18 04:05:16;;;;;;;21.75;2.50;;;5.30;99.90;;;;;;5098874;28;20031;-82
2022/01/18 04:07:42;;;;;;;0.20;0.20;;;5.40;99.90;;;;;;5115250;27;20107;-83
2022/01/18 04:10:09;;;;;;;3.13;1.10;;;5.40;99.90;;;;;;5098458;27;20039;-83
2022/01/18 04:12:35;;;;;;;22.80;2.63;;;5.40;99.90;;;;;;5098832;28;20031;-83
2022/01/18 04:15:06;;;;;;;1.33;0.38;;;5.30;99.90;;;;;;5115740;28;20497;-83
2022/01/18 04:30:51;;;;;;;0.15;0.15;;;5.50;99.90;;;;;;5115589;28;20500;-83
2022/01/18 04:33:18;;;;;;;0.65;0.52;;;5.50;99.90;;;;;;5098472;28;20046;-82
2022/01/18 04:35:44;;;;;;;1.00;1.00;;;5.50;99.90;;;;;;5098774;28;20039;-83
2022/01/18 04:38:10;;;;;;;1.00;0.95;;;5.60;99.90;;;;;;5098053;28;20076;-83
2022/01/18 04:40:39;;;;;;;0.63;0.47;;;5.50;99.90;;;;;;5098214;28;20544;-83
2022/01/18 04:43:21;;;;;;;1.00;0.82;;;5.60;99.90;;;;;;5098711;28;20046;-83
2022/01/18 04:48:35;;;;;;;0.20;0.20;;;5.60;99.90;;;;;;5115547;28;20502;-83
2022/01/18 04:51:07;;;;;;;0.30;0.30;;;5.50;99.90;;;;;;5098325;28;20050;-83
2022/01/18 04:53:41;;;;;;;7.95;1.15;;;5.60;99.90;;;;;;5102013;27;20039;-83
2022/01/18 04:56:14;;;;;;;0.52;0.30;;;5.50;99.90;;;;;;5101747;27;20050;-83
2022/01/18 04:58:40;;;;;;;0.32;0.32;;;5.50;99.90;;;;;;5102336;27;20035;-83
2022/01/18 05:01:07;;;;;;;5.03;2.35;;;5.50;99.90;;;;;;5119422;27;20479;-83
2022/01/18 05:03:33;;;;;;;5.70;2.05;;;5.50;99.90;;;;;;5107377;27;20054;-83
2022/01/18 05:06:03;;;;;;;4.90;2.08;;;5.50;99.90;;;;;;5138961;27;20042;-83
2022/01/18 05:08:29;;;;;;;10.15;3.30;;;5.50;99.90;;;;;;5110735;27;20500;-83
2022/01/18 05:10:57;;;;;;;3.25;1.55;;;5.40;99.90;;;;;;5118162;27;20039;-83
2022/01/18 05:14:01;;;;;;;5.00;2.42;;;5.40;99.90;;;;;;5101173;27;20027;-83
2022/01/18 05:24:08;;;;;;;4.75;1.45;;;5.30;99.90;;;;;;5097720;28;20126;-83
2022/01/18 05:26:33;;;;;;;1.42;0.98;;;5.30;99.90;;;;;;5080245;28;20195;-83
2022/01/18 05:28:59;;;;;;;1.08;0.80;;;5.30;99.90;;;;;;5080771;28;20093;-83
2022/01/18 05:31:25;;;;;;;8.02;2.15;;;5.40;99.90;;;;;;5109597;27;20118;-83
2022/01/18 05:33:51;;;;;;;17.92;2.58;;;5.30;99.90;;;;;;5121391;27;20035;-83
2022/01/18 05:36:16;;;;;;;17.10;3.45;;;5.20;99.90;;;;;;5138004;27;20053;-83
2022/01/18 05:38:42;;;;;;;9.40;1.63;;;5.20;99.90;;;;;;5121126;27;20683;-83
2022/01/18 05:41:10;;;;;;;17.27;3.13;;;5.20;99.90;;;;;;5117120;27;20054;-83
2022/01/18 05:43:37;;;;;;;4.47;1.30;;;5.10;99.90;;;;;;5100659;27;20035;-83
2022/01/18 05:46:03;;;;;;;3.60;1.10;;;5.20;99.90;;;;;;5100460;27;20066;-83
2022/01/18 05:48:28;;;;;;;6.65;1.85;;;5.20;99.90;;;;;;5117707;27;20084;-83
2022/01/18 05:50:59;;;;;;;5.63;2.22;;;5.10;99.90;;;;;;5100691;27;20035;-83
2022/01/18 05:53:25;;;;;;;9.15;1.73;;;5.10;99.90;;;;;;5102581;27;20044;-83
2022/01/18 05:55:51;;;;;;;4.10;1.98;;;5.10;99.90;;;;;;5106221;27;20095;-82
2022/01/18 05:58:17;;;;;;;10.77;2.72;;;5.10;99.90;;;;;;5100098;27;20038;-83
2022/01/18 06:00:42;;;;;;;4.18;1.52;;;5.10;99.90;;;;;;5100575;27;20038;-83
2022/01/18 06:03:14;;;;;;;0.60;0.52;;;5.10;99.90;;;;;;5099934;27;20453;-83
2022/01/18 06:08:37;;;;;;;1.13;1.02;;;5.10;99.90;;;;;;5074295;28;20047;-83
2022/01/18 06:11:03;;;;;;;1.48;0.73;;;5.00;99.90;;;;;;5096491;28;20043;-84
2022/01/18 06:13:29;;;;;;;0.30;0.30;;;5.00;99.90;;;;;;5100051;27;20042;-83
2022/01/18 06:15:54;;;;;;;0.20;0.20;;;4.80;99.90;;;;;;5100193;27;20399;-83
2022/01/18 06:18:20;;;;;;;1.05;0.95;;;4.70;99.90;;;;;;5133801;27;20035;-83
2022/01/18 06:20:45;;;;;;;0.30;0.30;;;4.70;99.90;;;;;;5100264;27;20036;-83
2022/01/18 06:23:13;;;;;;;0.20;0.20;;;4.70;99.90;;;;;;5100004;27;20039;-84
2022/01/18 06:25:39;;;;;;;0.30;0.30;;;4.80;99.90;;;;;;5117017;27;20484;-83
2022/01/18 06:28:05;;;;;;;0.22;0.22;;;4.70;99.90;;;;;;5099420;27;20041;-83
2022/01/18 06:30:31;;;;;;;0.28;0.28;;;4.70;99.90;;;;;;5099777;27;20476;-83
2022/01/18 06:32:56;;;;;;;0.77;0.60;;;4.70;99.90;;;;;;5099959;27;20066;-83
2022/01/18 06:35:22;;;;;;;0.30;0.30;;;4.60;99.90;;;;;;5099615;27;20035;-83
2022/01/18 06:37:47;;;;;;;0.25;0.25;;;4.70;99.90;;;;;;5099421;27;20380;-83
2022/01/18 06:40:13;;;;;;;0.20;0.20;;;4.60;99.90;;;;;;5117703;27;20484;-84
2022/01/18 06:42:41;;;;;;;0.20;0.20;;;4.60;99.90;;;;;;5107022;27;20042;-83
2022/01/18 06:45:08;;;;;;;0.30;0.30;;;4.60;99.90;;;;;;5099694;27;20434;-83
2022/01/18 06:47:34;;;;;;;0.30;0.30;;;4.60;99.90;;;;;;5100321;27;20050;-83
2022/01/18 06:49:59;;;;;;;0.38;0.38;;;4.60;99.90;;;;;;5116415;27;20035;-83
2022/01/18 06:52:25;;;;;;;2.17;1.95;;;4.70;99.90;;;;;;5099469;27;20031;-83
2022/01/18 06:54:50;;;;;;;0.60;0.50;;;4.70;99.90;;;;;;5099438;27;20476;-83
2022/01/18 06:57:16;;;;;;;0.20;0.20;;;4.70;99.90;;;;;;5098739;27;20035;-83
2022/01/18 06:59:42;;;;;;;0.30;0.30;;;4.70;99.90;;;;;;5099063;27;20035;-83
2022/01/18 07:02:07;;;;;;;3.50;0.98;;;4.80;99.90;;;;;;5099541;27;20053;-82
2022/01/18 07:04:33;;;;;;;0.30;0.30;;;4.80;99.90;;;;;;5095749;27;20031;-84
2022/01/18 07:06:58;;;;;;;0.40;0.40;;;4.90;99.90;;;;;;5102881;27;20756;-82
2022/01/18 07:09:24;;;;;;;1.48;1.38;;;4.80;99.90;;;;;;5091579;28;20067;-84
2022/01/18 07:11:55;;;;;;;0.30;0.30;;;4.90;99.90;;;;;;5078311;28;20043;-83
2022/01/18 07:14:21;;;;;;;0.80;0.40;;;5.00;99.90;;;;;;5077805;28;20036;-84
2022/01/18 07:16:47;;;;;;;17.08;2.85;;;4.90;99.90;;;;;;5078211;28;20054;-84
2022/01/18 07:19:12;;;;;;;0.57;0.57;;;5.00;99.90;;;;;;5079687;27;20038;-84
2022/01/18 07:21:38;;;;;;;0.50;0.50;;;5.00;99.90;;;;;;5103358;27;20092;-86
2022/01/18 07:24:14;;;;;;;1.95;1.25;;;5.10;99.90;;;;;;5118821;27;20082;-85
2022/01/18 07:26:40;;;;;;;2.35;1.17;;;5.00;99.90;;;;;;5118605;27;20035;-84
2022/01/18 07:29:05;;;;;;;0.30;0.30;;;5.00;99.90;;;;;;5105692;27;20554;-85
2022/01/18 07:31:47;;;;;;;0.20;0.20;;;5.00;99.90;;;;;;5098261;27;20084;-85
2022/01/18 07:34:14;;;;;;;1.25;1.15;;;5.10;99.90;;;;;;5098284;27;20027;-85
2022/01/18 07:36:40;;;;;;;3.35;1.00;;;5.10;99.90;;;;;;5098235;27;20484;-86
2022/01/18 07:39:05;;;;;;;0.30;0.30;;;5.10;99.90;;;;;;5098292;27;20084;-85
2022/01/18 07:41:31;;;;;;;0.30;0.30;;;5.10;99.90;;;;;;5098082;27;20084;-85
2022/01/18 07:43:56;;;;;;;27.48;1.70;;;5.10;99.90;;;;;;5106259;27;20062;-85
2022/01/18 07:46:22;;;;;;;0.40;0.40;;;5.20;99.90;;;;;;5115296;27;20648;-85
2022/01/18 07:48:47;;;;;;;2.10;0.98;;;5.20;99.90;;;;;;5098484;27;20043;-85
2022/01/18 07:51:13;;;;;;;0.20;0.20;;;5.20;99.90;;;;;;5099858;27;20408;-85
2022/01/18 07:53:39;;;;;;;4.70;1.65;;;5.20;99.90;;;;;;5104939;27;20344;-86
2022/01/18 07:56:04;;;;;;;14.05;5.43;;;5.20;99.90;;;;;;5114499;27;20043;-86
2022/01/18 07:58:30;;;;;;;10.10;2.55;;;5.90;99.90;;;;;;5114888;27;20039;-85
2022/01/18 08:00:57;;;;;;;3.92;2.28;;;5.20;99.90;;;;;;5097979;27;20054;-84
2022/01/18 08:03:22;;;;;;;0.57;0.57;;;5.20;99.90;;;;;;5097876;27;20071;-83
2022/01/18 08:05:51;;;;;;;4.50;1.73;;;5.30;99.90;;;;;;5114964;28;20466;-82
2022/01/18 08:08:17;;;;;;;3.88;1.33;;;5.20;99.90;;;;;;5098141;28;20476;-84
2022/01/18 08:10:42;;;;;;;3.67;1.70;;;5.20;99.90;;;;;;5097738;27;20039;-83
2022/01/18 08:13:08;;;;;;;5.57;1.33;;;5.30;99.90;;;;;;5115201;28;20126;-82
2022/01/18 08:15:39;;;;;;;3.08;1.13;;;5.30;99.90;;;;;;5102393;27;20026;-84
2022/01/18 08:18:23;;;;;;;1.90;1.23;;;5.30;99.90;;;;;;5118238;27;20027;-86
2022/01/18 08:20:48;;;;;;;2.40;1.30;;;5.30;99.90;;;;;;5118295;27;20064;-86
2022/01/18 08:23:14;;;;;;;7.25;2.05;;;5.30;99.90;;;;;;5118565;27;20041;-86
2022/01/18 08:25:39;;;;;;;1.67;0.88;;;5.20;99.90;;;;;;5135663;27;20125;-85
2022/01/18 08:28:05;;;;;;;0.30;0.30;;;5.30;99.90;;;;;;5122183;27;20043;-84
2022/01/18 08:30:30;;;;;;;3.45;1.58;;;5.30;99.90;;;;;;5139646;27;20082;-85
2022/01/18 08:32:56;;;;;;;3.33;1.42;;;5.30;99.90;;;;;;5139074;27;20035;-86
2022/01/18 08:35:23;;;;;;;4.00;2.17;;;5.30;99.90;;;;;;5122646;27;20041;-85
2022/01/18 08:37:49;;;;;;;3.38;1.70;;;5.40;99.90;;;;;;5121945;27;20061;-85
2022/01/18 08:40:15;;;;;;;3.75;2.00;;;5.30;99.90;;;;;;5118063;27;20483;-86
2022/01/18 08:42:43;;;;;;;11.50;0.88;;;5.30;99.90;;;;;;5122257;27;20043;-84
2022/01/18 08:45:08;;;;;;;6.72;1.77;;;5.30;99.90;;;;;;5139326;27;20039;-83
2022/01/18 08:47:34;;;;;;;0.57;0.57;;;5.30;99.90;;;;;;5121575;27;20045;-85
2022/01/18 08:50:00;;;;;;;1.85;1.17;;;5.40;99.90;;;;;;5117620;27;20615;-85
2022/01/18 08:52:25;;;;;;;10.65;3.03;;;5.30;99.90;;;;;;5101549;27;20035;-85
2022/01/18 08:54:51;;;;;;;1.38;1.05;;;5.40;99.90;;;;;;5101806;27;20146;-84
2022/01/18 08:57:16;;;;;;;2.30;1.95;;;5.60;99.90;;;;;;5100803;27;20057;-85
2022/01/18 08:59:43;;;;;;;1.77;0.82;;;5.40;99.90;;;;;;5101754;27;20043;-85
2022/01/18 09:02:10;;;;;;;8.63;2.35;;;5.40;99.90;;;;;;5101494;27;20042;-85
2022/01/18 09:04:36;;;;;;;0.40;0.40;;;5.40;99.90;;;;;;5114901;27;20041;-85
2022/01/18 09:07:07;;;;;;;1.80;1.08;;;5.70;99.90;;;;;;5121459;27;20121;-85
2022/01/18 09:09:34;;;;;;;0.82;0.60;;;5.40;99.90;;;;;;5120686;27;20046;-86
2022/01/18 09:12:00;;;;;;;2.25;1.15;;;5.50;99.90;;;;;;5118382;27;20444;-84
2022/01/18 09:14:26;;;;;;;3.63;1.38;;;5.50;99.90;;;;;;5138982;27;20039;-83
2022/01/18 09:16:52;;;;;;;1.58;1.20;;;5.50;99.90;;;;;;5121346;27;20755;-85
2022/01/18 09:19:17;;;;;;;0.40;0.40;;;5.50;99.90;;;;;;5121664;27;20041;-85
2022/01/18 09:21:47;;;;;;;1.48;1.35;;;5.50;99.90;;;;;;5121533;27;20034;-83
2022/01/18 09:24:13;;;;;;;0.50;0.50;;;5.60;99.90;;;;;;5121551;27;20037;-84
2022/01/18 09:26:38;;;;;;;0.20;0.20;;;5.70;99.90;;;;;;5115183;27;20031;-82
2022/01/18 09:29:06;;;;;;;0.30;0.30;;;5.70;99.90;;;;;;5109625;27;20092;-84
2022/01/18 09:31:34;;;;;;;0.50;0.50;;;5.70;99.90;;;;;;5100730;27;20035;-85
2022/01/18 09:33:59;;;;;;;1.75;1.20;;;5.70;99.90;;;;;;5118459;27;20459;-84
2022/01/18 09:36:25;;;;;;;1.27;1.05;;;5.80;99.90;;;;;;5120917;27;20073;-84
2022/01/18 09:38:50;;;;;;;1.00;0.73;;;5.80;99.90;;;;;;5120683;27;20129;-84
2022/01/18 09:41:17;;;;;;;6.32;1.38;;;5.80;99.90;;;;;;5120893;27;20406;-83
2022/01/18 09:43:43;;;;;;;0.73;0.73;;;5.80;99.90;;;;;;5121317;27;20073;-82
2022/01/18 09:46:09;;;;;;;0.70;0.70;;;5.90;99.90;;;;;;5120788;27;20074;-84
2022/01/18 09:48:35;;;;;;;2.75;1.10;;;6.00;99.90;;;;;;5121324;27;20039;-84
2022/01/18 09:51:00;;;;;;;0.85;0.50;;;6.10;99.90;;;;;;5116586;27;20038;-83
2022/01/18 09:53:27;;;;;;;1.23;0.68;;;6.10;99.90;;;;;;5138159;27;20138;-84
2022/01/18 09:55:53;;;;;;;0.85;0.55;;;6.10;99.90;;;;;;5100251;27;20441;-83
2022/01/18 09:58:19;;;;;;;0.30;0.30;;;6.00;99.90;;;;;;5099946;27;20088;-83
2022/01/18 10:00:46;;;;;;;0.30;0.30;;;6.10;99.90;;;;;;5117568;27;20081;-84
2022/01/18 10:03:36;;;;;;;0.65;0.45;;;6.10;99.90;;;;;;5100187;27;20071;-85
2022/01/18 10:06:03;;;;;;;0.40;0.40;;;6.20;99.90;;;;;;5090268;27;20043;-85
2022/01/18 10:08:29;;;;;;;1.48;1.25;;;6.20;99.90;;;;;;5099915;27;20066;-85
2022/01/18 10:11:02;;;;;;;0.30;0.30;;;6.20;99.90;;;;;;5099701;27;20035;-85
2022/01/18 10:13:33;;;;;;;0.57;0.40;;;6.30;99.90;;;;;;5104664;27;20027;-85
2022/01/18 10:16:14;;;;;;;0.30;0.30;;;6.30;99.90;;;;;;5116102;27;20037;-88
2022/01/18 10:18:48;;;;;;;0.50;0.40;;;6.30;99.90;;;;;;5137650;27;20476;-84
2022/01/18 10:21:22;;;;;;;6.85;0.80;;;6.30;99.90;;;;;;5120236;27;20054;-84
2022/01/18 10:23:51;;;;;;;1.45;0.40;;;6.40;99.90;;;;;;5120302;27;20130;-85
2022/01/18 10:26:22;;;;;;;1.63;0.52;;;6.40;99.90;;;;;;5119717;27;20058;-83
2022/01/18 10:28:57;;;;;;;0.70;0.70;;;6.40;99.90;;;;;;5120370;27;20042;-83
2022/01/18 10:31:25;;;;;;;1.75;0.95;;;6.40;99.90;;;;;;5137383;27;20487;-84
2022/01/18 10:34:10;;;;;;;5.35;1.40;;;6.40;99.90;;;;;;5137335;27;20039;-83
2022/01/18 10:36:51;;;;;;;0.20;0.20;;;6.40;99.90;;;;;;5137055;27;20487;-84
2022/01/18 10:39:21;;;;;;;0.65;0.65;;;6.30;99.90;;;;;;5111771;27;20035;-85
2022/01/18 10:41:47;;;;;;;1.20;0.60;;;6.30;99.90;;;;;;5099581;27;20047;-86
2022/01/18 10:44:14;;;;;;;2.67;0.65;;;6.30;99.90;;;;;;5099663;27;20042;-85
2022/01/18 10:46:43;;;;;;;0.28;0.28;;;6.30;99.90;;;;;;5098797;27;20077;-85
2022/01/18 10:49:10;;;;;;;0.30;0.30;;;6.40;99.90;;;;;;5098186;28;20078;-85
2022/01/18 10:51:38;;;;;;;0.30;0.30;;;6.40;99.90;;;;;;5098750;27;20043;-84
2022/01/18 10:54:07;;;;;;;0.38;0.38;;;6.40;99.90;;;;;;5099244;27;20123;-83
2022/01/18 10:56:41;;;;;;;3.30;0.52;;;6.40;99.90;;;;;;5098888;27;20049;-83
2022/01/18 10:59:18;;;;;;;0.20;0.20;;;6.40;99.90;;;;;;5099310;27;20050;-84
2022/01/18 11:01:44;;;;;;;0.30;0.30;;;6.50;99.90;;;;;;5111963;27;20043;-84
2022/01/18 11:04:15;;;;;;;3.13;0.75;;;6.50;99.90;;;;;;5118223;27;20445;-84
2022/01/18 11:06:55;;;;;;;1.02;0.65;;;6.50;99.90;;;;;;5117343;27;20060;-84
2022/01/18 11:09:21;;;;;;;0.30;0.30;;;6.50;99.90;;;;;;5119171;27;20035;-84
2022/01/18 11:11:47;;;;;;;0.43;0.38;;;6.50;99.90;;;;;;5119152;27;20472;-84
2022/01/18 11:14:17;;;;;;;0.40;0.40;;;6.50;99.90;;;;;;5136441;27;20075;-85
2022/01/18 11:16:44;;;;;;;1.20;0.80;;;6.50;99.90;;;;;;5098806;27;20035;-85
2022/01/18 11:21:47;;;;;;;0.40;0.40;;;6.50;99.90;;;;;;5128256;27;20046;-86
2022/01/18 11:24:15;;;;;;;0.90;0.70;;;6.50;99.90;;;;;;5106384;27;20042;-85
2022/01/18 11:26:52;;;;;;;0.32;0.32;;;6.40;99.90;;;;;;5098868;27;20483;-85
2022/01/18 11:29:19;;;;;;;3.45;1.00;;;6.50;99.90;;;;;;5098774;27;20042;-85
2022/01/18 11:31:51;;;;;;;4.13;0.80;;;6.40;99.90;;;;;;5098718;27;20039;-86
2022/01/18 11:34:23;;;;;;;1.38;0.75;;;6.50;99.90;;;;;;5098676;27;20042;-85
2022/01/18 11:36:51;;;;;;;3.47;0.85;;;6.50;99.90;;;;;;5098270;27;20042;-86
2022/01/18 11:39:20;;;;;;;1.17;0.80;;;6.50;99.90;;;;;;5096994;27;20054;-85
2022/01/18 11:41:46;;;;;;;0.60;0.50;;;6.50;99.90;;;;;;5102123;27;20038;-85
2022/01/18 11:44:17;;;;;;;0.47;0.45;;;6.50;99.90;;;;;;5118758;27;20071;-85
2022/01/18 11:46:51;;;;;;;0.43;0.43;;;6.50;99.90;;;;;;5118097;27;20046;-85
2022/01/18 11:49:23;;;;;;;2.17;0.80;;;6.40;99.90;;;;;;5110346;27;20035;-85
2022/01/18 11:52:23;;;;;;;4.32;1.17;;;6.50;99.90;;;;;;5115276;27;20407;-85
2022/01/18 11:57:27;;;;;;;1.85;1.10;;;6.40;99.90;;;;;;5114701;27;20047;-85
2022/01/18 12:00:04;;;;;;;1.23;1.00;;;6.40;99.90;;;;;;5097992;27;20035;-85
2022/01/18 12:02:38;;;;;;;1.15;0.63;;;6.40;99.90;;;;;;5097730;27;20035;-85
2022/01/18 12:05:20;;;;;;;2.58;1.42;;;6.40;99.90;;;;;;5112839;27;20344;-84
2022/01/18 12:08:01;;;;;;;0.60;0.57;;;6.30;99.90;;;;;;5118376;27;20095;-85
2022/01/18 12:10:33;;;;;;;1.42;1.02;;;6.40;99.90;;;;;;5118542;27;20493;-85
2022/01/18 12:13:13;;;;;;;4.93;1.92;;;6.30;99.90;;;;;;5103199;27;20053;-86
2022/01/18 12:15:46;;;;;;;1.08;0.88;;;6.30;99.90;;;;;;5094626;28;20394;-85
2022/01/18 12:18:26;;;;;;;0.60;0.43;;;6.30;99.90;;;;;;5095320;28;20568;-87
2022/01/18 12:20:54;;;;;;;1.20;0.60;;;6.30;99.90;;;;;;5097744;28;20059;-86
2022/01/18 12:23:27;;;;;;;5.00;1.27;;;6.30;99.90;;;;;;5097545;28;20404;-87
2022/01/18 12:26:21;;;;;;;0.75;0.45;;;6.30;99.90;;;;;;5097662;28;20060;-86
2022/01/18 12:29:47;;;;;;;1.38;1.08;;;6.30;99.90;;;;;;5097783;28;20084;-86
2022/01/18 12:32:39;;;;;;;0.52;0.52;;;6.40;99.90;;;;;;5110587;28;20503;-85
2022/01/18 12:35:18;;;;;;;3.10;0.65;;;6.40;99.90;;;;;;5103016;28;20043;-85
2022/01/18 12:37:45;;;;;;;1.80;0.93;;;6.40;99.90;;;;;;5113204;28;20081;-85
2022/01/18 12:40:24;;;;;;;4.60;1.52;;;6.40;99.90;;;;;;5105329;28;20111;-86
2022/01/18 12:45:34;;;;;;;0.95;0.70;;;6.40;99.90;;;;;;5114693;28;20415;-85
2022/01/18 12:48:09;;;;;;;1.67;1.13;;;6.50;99.90;;;;;;5101967;27;20473;-85
2022/01/18 12:50:39;;;;;;;0.90;0.82;;;6.40;99.90;;;;;;5117916;27;20046;-85
2022/01/18 12:53:07;;;;;;;1.10;0.85;;;6.50;99.90;;;;;;5106856;28;20096;-84
2022/01/18 12:55:45;;;;;;;10.13;2.75;;;6.50;99.90;;;;;;5097360;28;20027;-84
2022/01/18 12:58:15;;;;;;;0.55;0.55;;;6.60;99.90;;;;;;5096954;28;20033;-87
2022/01/18 13:00:53;;;;;;;0.30;0.30;;;6.50;99.90;;;;;;5118765;28;20036;-86
2022/01/18 13:03:28;;;;;;;0.30;0.30;;;6.60;99.90;;;;;;5098127;27;20043;-86
2022/01/18 13:05:56;;;;;;;1.10;0.40;;;6.60;99.90;;;;;;5097089;28;20408;-86
2022/01/18 13:08:29;;;;;;;1.48;0.75;;;6.60;99.90;;;;;;5096989;28;20047;-87
2022/01/18 13:10:54;;;;;;;0.73;0.73;;;6.60;99.90;;;;;;5097185;28;20142;-86
2022/01/18 13:13:28;;;;;;;0.65;0.65;;;6.60;99.90;;;;;;5098465;27;20536;-87
2022/01/18 13:24:05;;;;;;;0.47;0.47;;;6.80;99.90;;;;;;5126254;27;20056;-86
2022/01/18 13:26:36;;;;;;;2.13;1.00;;;6.70;99.90;;;;;;5120842;27;20093;-85
2022/01/18 13:29:21;;;;;;;3.58;1.88;;;6.70;99.90;;;;;;5121164;27;20037;-85
2022/01/18 13:32:00;;;;;;;2.47;2.25;;;6.70;99.90;;;;;;5116396;27;20039;-85
2022/01/18 13:34:34;;;;;;;1.15;1.05;;;6.70;99.90;;;;;;5101000;27;20557;-85
2022/01/18 13:37:03;;;;;;;0.20;0.20;;;6.70;99.90;;;;;;5123632;27;20440;-85
2022/01/18 13:39:32;;;;;;;1.88;1.40;;;6.70;99.90;;;;;;5110273;27;20040;-85
2022/01/18 13:42:00;;;;;;;5.40;1.13;;;6.70;99.90;;;;;;5100433;27;20384;-86
2022/01/18 13:44:29;;;;;;;9.32;2.25;;;6.70;99.90;;;;;;5100531;27;20035;-85
2022/01/18 13:46:55;;;;;;;9.43;3.33;;;6.70;99.90;;;;;;5104211;27;20066;-86
2022/01/18 13:49:24;;;;;;;2.45;1.48;;;6.70;99.90;;;;;;5100670;27;20076;-85
2022/01/18 13:52:11;;;;;;;0.75;0.45;;;6.60;99.90;;;;;;5100908;27;20050;-86
2022/01/18 13:54:52;;;;;;;2.35;1.33;;;6.60;99.90;;;;;;5104085;27;20105;-85
2022/01/18 13:57:22;;;;;;;4.78;2.42;;;6.60;99.90;;;;;;5137495;27;20038;-85
2022/01/18 13:59:54;;;;;;;2.00;1.35;;;6.50;99.90;;;;;;5120684;27;20452;-85
2022/01/18 14:02:22;;;;;;;3.30;1.63;;;6.50;99.90;;;;;;5120658;27;20042;-86
2022/01/18 14:05:07;;;;;;;1.75;0.77;;;6.50;99.90;;;;;;5120761;27;20046;-85
2022/01/18 14:07:33;;;;;;;0.35;0.35;;;6.50;99.90;;;;;;5117113;27;20031;-86
2022/01/18 14:09:59;;;;;;;7.55;2.63;;;6.40;99.90;;;;;;5106664;27;20063;-86
2022/01/18 14:12:32;;;;;;;3.00;1.63;;;6.40;99.90;;;;;;5118314;27;20035;-86
2022/01/18 14:14:58;;;;;;;4.93;2.45;;;6.30;99.90;;;;;;5099882;27;20075;-87
2022/01/18 14:17:24;;;;;;;1.30;1.08;;;6.30;99.90;;;;;;5099825;27;20515;-87
2022/01/18 14:20:03;;;;;;;4.30;1.95;;;6.30;99.90;;;;;;5100157;27;20121;-87
2022/01/18 14:22:28;;;;;;;0.70;0.70;;;6.30;99.90;;;;;;5100826;27;20046;-87
2022/01/18 14:25:01;;;;;;;0.80;0.73;;;6.30;99.90;;;;;;5099805;27;20043;-87
2022/01/18 14:27:31;;;;;;;7.32;2.45;;;6.10;99.90;;;;;;5099378;27;20042;-86
2022/01/18 14:30:08;;;;;;;5.40;2.78;;;6.10;99.90;;;;;;5099686;27;20069;-87
2022/01/18 14:32:42;;;;;;;4.45;1.35;;;6.10;99.90;;;;;;5100146;27;20039;-87